Time;durP1;ratioP1;P1;durP2;ratioP2;P2;SDS_P1;SDS_P2;PMS_P1;PMS_P2;Temp;Humidity;BMP_temperature;BMP_pressure;BME280_temperature;BME280_humidity;BME280_pressure;Samples;Min_cycle;Max_cycle;Signal;HPM_P1;HPM_P2
2020/12/14 00:01:24;;;;;;;5.40;3.80;;;6.90;99.90;;;;;;4998594;28;20186;-89
2020/12/14 00:03:50;;;;;;;8.35;3.33;;;6.90;99.90;;;;;;4999699;28;20458;-89
2020/12/14 00:06:21;;;;;;;6.95;3.85;;;6.90;99.90;;;;;;4998481;28;20672;-88
2020/12/14 00:08:49;;;;;;;6.90;4.25;;;7.00;99.90;;;;;;4999021;28;20224;-88
2020/12/14 00:11:15;;;;;;;5.65;4.10;;;7.00;99.90;;;;;;4990475;28;20199;-89
2020/12/14 00:13:45;;;;;;;7.05;4.00;;;7.00;99.90;;;;;;4997478;28;20639;-87
2020/12/14 00:16:13;;;;;;;4.20;3.80;;;7.00;99.90;;;;;;4998588;28;20671;-84
2020/12/14 00:18:39;;;;;;;8.23;3.70;;;7.10;99.90;;;;;;4998477;28;20265;-85
2020/12/14 00:21:08;;;;;;;7.97;4.28;;;7.00;99.90;;;;;;4998810;28;20413;-87
2020/12/14 00:23:38;;;;;;;10.38;4.30;;;7.00;99.90;;;;;;5001514;28;20518;-86
2020/12/14 00:26:08;;;;;;;6.93;3.83;;;7.10;99.90;;;;;;5018578;28;20186;-88
2020/12/14 00:28:34;;;;;;;6.05;3.55;;;7.10;99.90;;;;;;5018249;28;20896;-84
2020/12/14 00:31:00;;;;;;;7.63;3.40;;;7.20;99.90;;;;;;4993008;28;20214;-88
2020/12/14 00:33:26;;;;;;;6.40;3.60;;;7.20;99.90;;;;;;4981338;28;20425;-86
2020/12/14 00:35:54;;;;;;;7.88;3.58;;;7.20;99.90;;;;;;4998748;28;20433;-86
2020/12/14 00:38:21;;;;;;;3.40;3.00;;;7.20;99.90;;;;;;4981780;28;20209;-89
2020/12/14 00:40:47;;;;;;;8.57;3.55;;;7.20;99.90;;;;;;4993149;28;20772;-84
2020/12/14 00:43:12;;;;;;;6.67;3.93;;;7.20;99.90;;;;;;4998466;28;20241;-82
2020/12/14 00:45:38;;;;;;;6.00;3.83;;;7.20;99.90;;;;;;4998021;28;20511;-84
2020/12/14 00:48:07;;;;;;;7.03;3.72;;;7.20;99.90;;;;;;4981549;28;20425;-86
2020/12/14 00:50:33;;;;;;;4.63;3.27;;;7.20;99.90;;;;;;4978332;28;20192;-86
2020/12/14 00:52:58;;;;;;;8.20;4.83;;;7.20;99.90;;;;;;4978785;28;20430;-86
2020/12/14 00:55:24;;;;;;;6.23;3.50;;;7.20;99.90;;;;;;4984441;28;20447;-85
2020/12/14 00:57:50;;;;;;;7.27;3.50;;;7.20;99.90;;;;;;5013173;28;20484;-87
2020/12/14 01:00:19;;;;;;;9.07;3.60;;;7.20;99.90;;;;;;4998044;28;20448;-89
2020/12/14 01:02:45;;;;;;;7.37;3.43;;;7.20;99.90;;;;;;4998231;28;20178;-86
2020/12/14 01:05:15;;;;;;;7.77;3.67;;;7.20;99.90;;;;;;5012923;28;20472;-87
2020/12/14 01:07:41;;;;;;;7.15;2.95;;;7.20;99.90;;;;;;5018131;28;20404;-89
2020/12/14 01:10:07;;;;;;;5.47;3.57;;;7.30;99.90;;;;;;4999866;28;20638;-87
2020/12/14 01:12:35;;;;;;;4.72;3.33;;;7.20;99.90;;;;;;5017876;28;20857;-89
2020/12/14 01:15:02;;;;;;;5.60;3.30;;;7.20;99.90;;;;;;5017515;28;20192;-88
2020/12/14 01:17:28;;;;;;;8.25;3.22;;;7.30;99.90;;;;;;5017459;28;20328;-89
2020/12/14 01:19:58;;;;;;;5.43;3.30;;;7.20;99.90;;;;;;5017691;28;20186;-91
2020/12/14 01:22:25;;;;;;;5.72;3.15;;;7.20;99.90;;;;;;5009076;28;20183;-85
2020/12/14 01:24:53;;;;;;;6.90;3.17;;;7.30;99.90;;;;;;5000866;28;20346;-88
2020/12/14 01:27:19;;;;;;;3.55;3.25;;;7.30;99.90;;;;;;5004805;28;20287;-90
2020/12/14 01:29:47;;;;;;;4.37;3.10;;;7.30;99.90;;;;;;5033352;28;20220;-89
2020/12/14 01:32:13;;;;;;;4.35;3.20;;;7.30;99.90;;;;;;5017742;28;20499;-86
2020/12/14 01:34:39;;;;;;;6.03;3.43;;;7.40;99.90;;;;;;5016865;28;20328;-85
2020/12/14 01:37:07;;;;;;;7.73;3.60;;;7.30;99.90;;;;;;5015204;28;20435;-89
2020/12/14 01:39:33;;;;;;;4.22;2.90;;;7.30;99.90;;;;;;5016754;28;20889;-87
2020/12/14 01:41:59;;;;;;;4.30;3.40;;;7.30;99.90;;;;;;5012505;28;20208;-89
2020/12/14 01:44:27;;;;;;;4.77;3.33;;;7.30;99.90;;;;;;4996684;28;20469;-86
2020/12/14 01:46:59;;;;;;;4.70;3.10;;;7.30;99.90;;;;;;5005480;28;20824;-86
2020/12/14 01:49:25;;;;;;;4.25;2.88;;;7.30;99.90;;;;;;5016122;28;20214;-90
2020/12/14 01:51:53;;;;;;;7.22;3.33;;;7.30;99.90;;;;;;5016691;28;20182;-83
2020/12/14 01:54:25;;;;;;;4.75;2.63;;;7.30;99.90;;;;;;5016108;28;20198;-87
2020/12/14 01:56:53;;;;;;;6.20;3.28;;;7.30;99.90;;;;;;5016211;28;20251;-88
2020/12/14 01:59:19;;;;;;;5.57;2.60;;;7.40;99.90;;;;;;4991688;28;20218;-90
2020/12/14 02:01:48;;;;;;;5.35;3.22;;;7.30;99.90;;;;;;4978015;28;20567;-89
2020/12/14 02:04:14;;;;;;;5.75;3.20;;;7.20;99.90;;;;;;4986368;28;20650;-88
2020/12/14 02:06:40;;;;;;;4.33;3.10;;;7.30;99.90;;;;;;4996164;28;20210;-86
2020/12/14 02:09:11;;;;;;;4.47;2.78;;;7.20;99.90;;;;;;5002192;28;20428;-87
2020/12/14 02:11:37;;;;;;;9.02;3.20;;;7.30;99.90;;;;;;4995083;28;20182;-84
2020/12/14 02:14:03;;;;;;;6.90;3.07;;;7.30;99.90;;;;;;5031189;28;20182;-89
2020/12/14 02:16:30;;;;;;;6.37;3.53;;;7.30;99.90;;;;;;5016015;28;20475;-84
2020/12/14 02:18:55;;;;;;;6.63;3.03;;;7.30;99.90;;;;;;5022249;28;20446;-84
2020/12/14 02:21:24;;;;;;;5.55;3.05;;;7.20;99.90;;;;;;4995406;28;20209;-85
2020/12/14 02:23:50;;;;;;;8.93;2.97;;;7.30;99.90;;;;;;5028581;28;20234;-89
2020/12/14 02:26:18;;;;;;;5.75;2.83;;;7.20;99.90;;;;;;4996090;28;20495;-87
2020/12/14 02:28:46;;;;;;;3.40;2.97;;;7.30;99.90;;;;;;5014037;28;20178;-87
2020/12/14 02:31:12;;;;;;;5.47;2.47;;;7.20;99.90;;;;;;5008499;28;20528;-86
2020/12/14 02:33:38;;;;;;;3.70;2.97;;;7.30;99.90;;;;;;4996312;28;20261;-86
2020/12/14 02:36:06;;;;;;;6.90;2.93;;;7.20;99.90;;;;;;4997881;28;20568;-89
2020/12/14 02:38:32;;;;;;;5.85;3.17;;;7.20;99.90;;;;;;5016559;28;20756;-90
2020/12/14 02:41:00;;;;;;;5.10;3.30;;;7.20;99.90;;;;;;5008752;28;20623;-88
2020/12/14 02:43:28;;;;;;;2.80;2.60;;;7.20;99.90;;;;;;5004791;28;20249;-86
2020/12/14 02:45:54;;;;;;;4.97;3.13;;;7.10;99.90;;;;;;5014410;28;20465;-86
2020/12/14 02:48:22;;;;;;;8.00;3.10;;;7.10;99.90;;;;;;5015841;28;20193;-89
2020/12/14 02:50:48;;;;;;;6.18;2.97;;;7.10;99.90;;;;;;4998598;28;20424;-89
2020/12/14 02:53:14;;;;;;;4.53;2.97;;;7.10;99.90;;;;;;5031219;28;20185;-88
2020/12/14 02:55:47;;;;;;;7.47;2.50;;;7.10;99.90;;;;;;5008218;28;20831;-89
2020/12/14 02:58:15;;;;;;;5.68;3.15;;;7.10;99.90;;;;;;5015106;28;20166;-85
2020/12/14 03:00:43;;;;;;;8.13;3.50;;;7.10;99.90;;;;;;4997189;28;20255;-88
2020/12/14 03:03:09;;;;;;;4.10;2.63;;;7.10;99.90;;;;;;4994790;28;20419;-87
2020/12/14 03:05:35;;;;;;;6.67;2.80;;;7.10;99.90;;;;;;5011001;28;20267;-87
2020/12/14 03:08:04;;;;;;;2.50;2.10;;;7.10;99.90;;;;;;5015500;28;20421;-87
2020/12/14 03:10:29;;;;;;;4.00;3.00;;;7.10;99.90;;;;;;4995377;28;20967;-83
2020/12/14 03:13:00;;;;;;;6.43;3.17;;;7.20;99.90;;;;;;5003013;28;20189;-85
2020/12/14 03:15:31;;;;;;;5.05;2.92;;;7.20;99.90;;;;;;4996873;28;20240;-87
2020/12/14 03:17:56;;;;;;;3.80;2.60;;;7.30;99.90;;;;;;5017295;28;20237;-83
2020/12/14 03:20:22;;;;;;;5.40;3.13;;;7.30;99.90;;;;;;4995402;28;20203;-81
2020/12/14 03:22:48;;;;;;;4.27;2.37;;;7.30;99.90;;;;;;4995320;28;20452;-84
2020/12/14 03:25:14;;;;;;;6.63;2.90;;;7.30;99.90;;;;;;5012878;28;20988;-88
2020/12/14 03:27:40;;;;;;;3.10;1.93;;;7.30;99.90;;;;;;5000114;28;20441;-90
2020/12/14 03:30:10;;;;;;;3.77;2.57;;;7.30;99.90;;;;;;4978137;28;20521;-86
2020/12/14 03:32:36;;;;;;;3.88;3.00;;;7.30;99.90;;;;;;5010780;28;20529;-89
2020/12/14 03:35:04;;;;;;;5.90;3.27;;;7.30;99.90;;;;;;4994728;28;20305;-84
2020/12/14 03:37:30;;;;;;;3.72;3.15;;;7.30;99.90;;;;;;5012007;28;20433;-86
2020/12/14 03:39:56;;;;;;;4.00;2.83;;;7.30;99.90;;;;;;4979739;28;20203;-86
2020/12/14 03:42:24;;;;;;;3.80;2.60;;;7.30;99.90;;;;;;4994252;28;20437;-88
2020/12/14 03:44:53;;;;;;;4.80;3.10;;;7.30;99.90;;;;;;4969439;28;20499;-86
2020/12/14 03:47:18;;;;;;;5.63;2.90;;;7.40;99.90;;;;;;4995473;28;20183;-89
2020/12/14 03:49:44;;;;;;;5.77;3.13;;;7.40;99.90;;;;;;5011243;28;20178;-88
2020/12/14 03:52:10;;;;;;;4.93;2.90;;;7.30;99.90;;;;;;4995659;28;20421;-89
2020/12/14 03:54:36;;;;;;;3.00;2.47;;;7.40;99.90;;;;;;4995751;28;21059;-88
2020/12/14 03:57:07;;;;;;;4.78;4.05;;;7.40;99.90;;;;;;4979235;28;20464;-89
2020/12/14 03:59:35;;;;;;;3.80;2.30;;;7.40;99.90;;;;;;5002988;28;20543;-90
2020/12/14 04:02:03;;;;;;;5.22;2.63;;;7.40;99.90;;;;;;5014766;28;20495;-87
2020/12/14 04:04:31;;;;;;;5.88;3.17;;;7.40;99.90;;;;;;4997953;28;20225;-88
2020/12/14 04:06:59;;;;;;;9.82;3.00;;;7.50;99.90;;;;;;5013335;28;20189;-89
2020/12/14 04:09:25;;;;;;;4.70;2.87;;;7.50;99.90;;;;;;5014752;28;20174;-86
2020/12/14 04:11:55;;;;;;;3.67;3.10;;;7.50;99.90;;;;;;4997916;28;20425;-88
2020/12/14 04:14:24;;;;;;;5.25;3.35;;;7.50;99.90;;;;;;4995810;28;20464;-83
2020/12/14 04:16:57;;;;;;;5.40;2.75;;;7.50;99.90;;;;;;4961821;28;20175;-87
2020/12/14 04:19:25;;;;;;;3.40;2.70;;;7.50;99.90;;;;;;5009695;28;20186;-84
2020/12/14 04:21:51;;;;;;;8.47;3.10;;;7.40;99.90;;;;;;5010627;28;20522;-88
2020/12/14 04:24:20;;;;;;;7.35;2.85;;;7.40;99.90;;;;;;5007950;28;20503;-84
2020/12/14 04:26:53;;;;;;;5.72;3.25;;;7.40;99.90;;;;;;5015206;28;20496;-90
2020/12/14 04:29:19;;;;;;;5.07;3.03;;;7.50;99.90;;;;;;5014617;28;20649;-86
2020/12/14 04:31:50;;;;;;;3.55;3.15;;;7.50;99.90;;;;;;5002118;28;20194;-86
2020/12/14 04:34:19;;;;;;;3.47;3.17;;;7.40;99.90;;;;;;4995213;28;20479;-88
2020/12/14 04:36:51;;;;;;;7.88;2.88;;;7.40;99.90;;;;;;4994999;28;20195;-89
2020/12/14 04:39:20;;;;;;;3.80;3.00;;;7.50;99.90;;;;;;5002848;28;20631;-87
2020/12/14 04:41:48;;;;;;;5.35;3.30;;;7.40;99.90;;;;;;5012808;28;20221;-87
2020/12/14 04:44:14;;;;;;;3.55;3.00;;;7.50;99.90;;;;;;5003204;28;20654;-84
2020/12/14 04:46:47;;;;;;;4.70;3.75;;;7.50;99.90;;;;;;5018261;28;20186;-90
2020/12/14 04:49:13;;;;;;;3.17;2.90;;;7.50;99.90;;;;;;4998221;28;20254;-89
2020/12/14 04:51:39;;;;;;;3.07;2.80;;;7.60;99.90;;;;;;5008481;28;20213;-86
2020/12/14 04:54:06;;;;;;;7.32;3.00;;;7.60;99.90;;;;;;5017477;28;20432;-86
2020/12/14 04:56:39;;;;;;;3.60;2.28;;;7.60;99.90;;;;;;5016830;28;20558;-89
2020/12/14 04:59:09;;;;;;;3.95;2.75;;;7.60;99.90;;;;;;5032496;28;20178;-84
2020/12/14 05:01:36;;;;;;;3.40;3.10;;;7.60;99.90;;;;;;4999694;28;20280;-86
2020/12/14 05:04:04;;;;;;;3.70;2.97;;;7.60;99.90;;;;;;5003758;28;20191;-83
2020/12/14 05:06:49;;;;;;;6.10;3.08;;;7.60;99.90;;;;;;4998628;28;20194;-90
2020/12/14 05:09:19;;;;;;;3.90;3.00;;;7.60;99.90;;;;;;4997575;28;20257;-87
2020/12/14 05:11:45;;;;;;;4.13;2.85;;;7.60;99.90;;;;;;5022125;28;20183;-90
2020/12/14 05:14:18;;;;;;;6.95;3.05;;;7.60;99.90;;;;;;4999776;28;20218;-87
2020/12/14 05:16:46;;;;;;;4.63;3.28;;;7.60;99.90;;;;;;5016324;28;20273;-87
2020/12/14 05:19:20;;;;;;;3.30;2.42;;;7.70;99.90;;;;;;4997766;28;20198;-87
2020/12/14 05:21:56;;;;;;;3.90;2.70;;;7.60;99.90;;;;;;5012527;28;20186;-88
2020/12/14 05:24:26;;;;;;;4.28;2.60;;;7.60;99.90;;;;;;4998758;28;20222;-88
2020/12/14 05:26:52;;;;;;;3.13;2.83;;;7.60;99.90;;;;;;4997954;28;20699;-88
2020/12/14 05:29:28;;;;;;;2.97;2.63;;;7.60;99.90;;;;;;4979825;28;20209;-85
2020/12/14 05:32:10;;;;;;;5.45;3.10;;;7.50;99.90;;;;;;4980487;28;20197;-85
2020/12/14 05:34:44;;;;;;;8.27;4.03;;;7.50;99.90;;;;;;4994127;28;20185;-86
2020/12/14 05:37:14;;;;;;;4.03;3.35;;;7.50;99.90;;;;;;4980921;28;20197;-88
2020/12/14 05:39:42;;;;;;;7.25;3.08;;;7.50;99.90;;;;;;4997718;28;20258;-87
2020/12/14 05:42:19;;;;;;;2.80;2.25;;;7.50;99.90;;;;;;4997176;28;20186;-89
2020/12/14 05:44:47;;;;;;;4.55;3.00;;;7.50;99.90;;;;;;4980194;28;20198;-84
2020/12/14 05:47:23;;;;;;;4.43;2.80;;;7.50;99.90;;;;;;4993351;28;20199;-88
2020/12/14 05:49:52;;;;;;;6.28;2.85;;;7.60;99.90;;;;;;4996409;28;20298;-89
2020/12/14 05:52:20;;;;;;;4.80;2.50;;;7.60;99.90;;;;;;4997494;28;20186;-86
2020/12/14 05:54:54;;;;;;;3.60;2.85;;;7.60;99.90;;;;;;4995818;28;20195;-86
2020/12/14 05:57:35;;;;;;;4.00;2.35;;;7.60;99.90;;;;;;4996758;28;20210;-85
2020/12/14 06:00:05;;;;;;;6.22;2.90;;;7.70;99.90;;;;;;4996954;28;20171;-87
2020/12/14 06:02:31;;;;;;;6.30;3.03;;;7.60;99.90;;;;;;4996891;28;20185;-85
2020/12/14 06:04:58;;;;;;;5.22;2.83;;;7.60;99.90;;;;;;4996720;28;20221;-88
2020/12/14 06:07:27;;;;;;;2.78;2.55;;;7.60;99.90;;;;;;4996677;28;20214;-82
2020/12/14 06:10:15;;;;;;;3.08;2.35;;;7.70;99.90;;;;;;4979601;28;20245;-84
2020/12/14 06:12:45;;;;;;;4.03;3.05;;;7.70;99.90;;;;;;4996506;28;20508;-86
2020/12/14 06:15:16;;;;;;;2.70;2.50;;;7.70;99.90;;;;;;4980082;28;20194;-88
2020/12/14 06:17:45;;;;;;;4.53;3.03;;;7.60;99.90;;;;;;4996354;28;20321;-86
2020/12/14 06:20:18;;;;;;;4.75;2.63;;;7.60;99.90;;;;;;4979329;28;20229;-87
2020/12/14 06:22:50;;;;;;;4.57;2.60;;;7.60;99.90;;;;;;4979170;28;20613;-88
2020/12/14 06:25:23;;;;;;;5.22;2.70;;;7.60;99.90;;;;;;5012300;28;20237;-86
2020/12/14 06:27:49;;;;;;;2.85;2.65;;;7.70;99.90;;;;;;4995631;28;20190;-87
2020/12/14 06:30:31;;;;;;;3.28;2.97;;;7.70;99.90;;;;;;4996199;28;20195;-82
2020/12/14 06:33:12;;;;;;;3.38;2.97;;;7.80;99.90;;;;;;4995680;28;20186;-83
2020/12/14 06:35:49;;;;;;;4.78;2.50;;;7.90;99.90;;;;;;4995440;28;20281;-84
2020/12/14 06:38:38;;;;;;;3.88;2.65;;;7.80;99.90;;;;;;4995160;28;20269;-85
2020/12/14 06:41:24;;;;;;;5.90;3.10;;;7.80;99.90;;;;;;4987395;28;20183;-88
2020/12/14 06:44:03;;;;;;;3.08;2.78;;;7.90;99.90;;;;;;4976324;28;20195;-86
2020/12/14 06:46:32;;;;;;;9.98;3.30;;;7.90;99.90;;;;;;4976222;28;20187;-86
2020/12/14 06:48:59;;;;;;;3.65;2.60;;;7.90;99.90;;;;;;4961940;28;20336;-83
2020/12/14 06:51:25;;;;;;;4.32;2.92;;;7.90;99.90;;;;;;4998049;28;20607;-87
2020/12/14 06:53:53;;;;;;;4.15;2.88;;;7.90;99.90;;;;;;4995641;28;20221;-85
2020/12/14 06:56:27;;;;;;;4.63;2.75;;;7.80;99.90;;;;;;4995078;28;20503;-87
2020/12/14 06:58:54;;;;;;;6.50;3.00;;;7.80;99.90;;;;;;4995407;28;20262;-82
2020/12/14 07:01:37;;;;;;;3.75;2.60;;;7.80;99.90;;;;;;4992618;28;20556;-87
2020/12/14 07:04:28;;;;;;;3.72;3.08;;;7.90;99.90;;;;;;4974661;28;20171;-84
2020/12/14 07:07:06;;;;;;;7.07;2.90;;;7.90;99.90;;;;;;4974675;28;20214;-84
2020/12/14 07:09:36;;;;;;;3.80;2.50;;;8.00;99.90;;;;;;4992237;28;20178;-88
2020/12/14 07:12:08;;;;;;;2.85;2.65;;;7.90;99.90;;;;;;4976192;28;20191;-88
2020/12/14 07:14:49;;;;;;;4.10;2.40;;;8.00;99.90;;;;;;4978064;28;20194;-89
2020/12/14 07:17:28;;;;;;;3.63;3.33;;;8.00;99.90;;;;;;4994704;28;20201;-91
2020/12/14 07:20:00;;;;;;;5.80;3.10;;;8.00;99.90;;;;;;4959991;28;20218;-86
2020/12/14 07:22:49;;;;;;;5.30;2.85;;;7.90;99.90;;;;;;5000706;28;20214;-87
2020/12/14 07:25:23;;;;;;;3.13;2.75;;;7.90;99.90;;;;;;4998618;28;20659;-88
2020/12/14 07:27:57;;;;;;;3.03;2.70;;;7.90;99.90;;;;;;4999054;28;20184;-88
2020/12/14 07:30:34;;;;;;;4.82;2.55;;;7.90;99.90;;;;;;5015254;28;20690;-90
2020/12/14 07:33:00;;;;;;;3.80;2.63;;;7.90;99.90;;;;;;5014340;28;20190;-87
2020/12/14 07:35:26;;;;;;;4.50;2.67;;;7.90;99.90;;;;;;5014429;28;20433;-91
2020/12/14 07:37:52;;;;;;;3.38;2.50;;;7.90;99.90;;;;;;4982299;28;20828;-93
2020/12/14 07:40:20;;;;;;;5.80;2.73;;;7.70;99.90;;;;;;5014630;28;20221;-89
2020/12/14 07:42:47;;;;;;;3.85;2.90;;;7.70;99.90;;;;;;5015078;28;20436;-92
2020/12/14 07:45:19;;;;;;;8.45;2.70;;;7.70;99.90;;;;;;5014945;28;20213;-91
2020/12/14 07:47:48;;;;;;;6.30;2.78;;;7.70;99.90;;;;;;4981756;28;20595;-91
2020/12/14 07:50:23;;;;;;;5.45;2.83;;;7.60;99.90;;;;;;5014831;28;20205;-89
2020/12/14 07:52:53;;;;;;;5.20;2.70;;;7.60;99.90;;;;;;5004427;28;20244;-91
2020/12/14 07:55:20;;;;;;;5.55;3.10;;;7.60;99.90;;;;;;4964103;28;20197;-92
2020/12/14 07:57:48;;;;;;;5.20;2.60;;;7.60;99.90;;;;;;5013021;28;20198;-90
2020/12/14 08:00:25;;;;;;;5.18;2.72;;;7.50;99.90;;;;;;4993009;28;20222;-88
2020/12/14 08:03:01;;;;;;;4.00;2.80;;;7.40;99.90;;;;;;4993904;28;20233;-94
2020/12/14 08:05:27;;;;;;;5.05;3.17;;;7.40;99.90;;;;;;4980378;28;20286;-84
2020/12/14 08:08:01;;;;;;;4.68;2.95;;;7.40;99.90;;;;;;4996941;28;20198;-90
2020/12/14 08:10:32;;;;;;;3.80;2.65;;;7.40;99.90;;;;;;4999296;28;20212;-87
2020/12/14 08:13:11;;;;;;;9.55;3.17;;;7.40;99.90;;;;;;4996066;28;20206;-88
2020/12/14 08:15:46;;;;;;;6.35;3.70;;;7.40;99.90;;;;;;4997877;28;20698;-87
2020/12/14 08:18:14;;;;;;;4.15;3.30;;;7.40;99.90;;;;;;4999589;28;20743;-90
2020/12/14 08:20:41;;;;;;;7.50;3.33;;;7.30;99.90;;;;;;4998182;28;20638;-92
2020/12/14 08:23:21;;;;;;;6.10;3.40;;;7.30;99.90;;;;;;4973302;28;20256;-88
2020/12/14 08:25:52;;;;;;;4.95;2.90;;;7.30;99.90;;;;;;4997891;28;20214;-88
2020/12/14 08:28:29;;;;;;;4.80;3.17;;;7.30;99.90;;;;;;4969013;28;20187;-90
2020/12/14 08:30:55;;;;;;;3.38;2.85;;;7.30;99.90;;;;;;4996416;28;20204;-90
2020/12/14 08:33:24;;;;;;;5.65;2.90;;;7.30;99.90;;;;;;4967909;28;20631;-87
2020/12/14 08:35:53;;;;;;;7.43;3.58;;;7.30;99.90;;;;;;4995651;28;20229;-90
2020/12/14 08:38:24;;;;;;;7.90;3.30;;;7.30;99.90;;;;;;4972101;28;20199;-86
2020/12/14 08:40:57;;;;;;;4.30;2.65;;;7.40;99.90;;;;;;4979634;28;20201;-90
2020/12/14 08:43:31;;;;;;;4.07;2.63;;;7.40;99.90;;;;;;4966133;28;20231;-89
2020/12/14 08:46:16;;;;;;;3.50;2.70;;;7.40;99.90;;;;;;4995507;28;20291;-88
2020/12/14 08:49:02;;;;;;;3.65;2.30;;;7.50;99.90;;;;;;4997216;28;20269;-89
2020/12/14 08:51:32;;;;;;;10.13;3.25;;;7.50;99.90;;;;;;4964705;28;20217;-88
2020/12/14 08:54:18;;;;;;;3.15;2.65;;;7.50;99.90;;;;;;4997186;28;20257;-89
2020/12/14 08:56:48;;;;;;;5.30;3.10;;;7.50;99.90;;;;;;4980043;28;20205;-85
2020/12/14 08:59:25;;;;;;;8.63;3.50;;;7.50;99.90;;;;;;4991564;28;20222;-87
2020/12/14 09:01:57;;;;;;;6.32;3.10;;;7.50;99.90;;;;;;4995968;28;20217;-89
2020/12/14 09:04:28;;;;;;;5.45;3.50;;;7.50;99.90;;;;;;4995288;28;20293;-88
2020/12/14 09:06:57;;;;;;;5.43;2.70;;;7.50;99.90;;;;;;4995998;28;20187;-89
2020/12/14 09:09:33;;;;;;;5.55;2.70;;;7.60;99.90;;;;;;4974725;28;20190;-89
2020/12/14 09:12:09;;;;;;;5.45;3.08;;;7.60;99.90;;;;;;4980786;28;20555;-90
2020/12/14 09:14:41;;;;;;;4.00;2.97;;;7.60;99.90;;;;;;4981308;28;20190;-88
2020/12/14 09:17:17;;;;;;;3.35;3.05;;;7.60;99.90;;;;;;4972468;28;20191;-91
2020/12/14 09:19:55;;;;;;;3.42;2.50;;;7.70;99.90;;;;;;4959157;28;20226;-86
2020/12/14 09:22:22;;;;;;;6.68;3.00;;;7.70;99.90;;;;;;4979614;28;20289;-88
2020/12/14 09:24:49;;;;;;;5.22;2.80;;;7.70;99.90;;;;;;4990969;28;20250;-92
2020/12/14 09:27:19;;;;;;;4.28;3.20;;;7.70;99.90;;;;;;4995974;28;20182;-90
2020/12/14 09:29:48;;;;;;;5.70;3.42;;;7.80;99.90;;;;;;4976465;28;20195;-91
2020/12/14 09:32:15;;;;;;;5.88;2.50;;;7.80;99.90;;;;;;4996922;28;20240;-89
2020/12/14 09:34:41;;;;;;;3.97;2.92;;;7.80;99.90;;;;;;4964439;28;20233;-94
2020/12/14 09:37:11;;;;;;;4.93;2.90;;;7.80;99.90;;;;;;4997926;28;20202;-91
2020/12/14 09:39:39;;;;;;;6.15;2.92;;;7.80;99.90;;;;;;4997139;28;20345;-92
2020/12/14 09:42:07;;;;;;;4.18;2.80;;;7.90;99.90;;;;;;4996750;28;20214;-89
2020/12/14 09:44:34;;;;;;;4.10;3.53;;;7.90;99.90;;;;;;4988553;28;20861;-92
2020/12/14 09:47:07;;;;;;;6.22;3.97;;;7.90;99.90;;;;;;4977255;28;20197;-92
2020/12/14 09:49:36;;;;;;;4.93;2.78;;;7.90;99.90;;;;;;4957906;28;20191;-93
2020/12/14 09:52:03;;;;;;;4.68;2.83;;;7.90;99.90;;;;;;4997746;28;20224;-92
2020/12/14 09:54:33;;;;;;;4.78;3.45;;;7.90;99.90;;;;;;4971766;28;20194;-89
2020/12/14 09:56:59;;;;;;;4.47;3.10;;;7.80;99.90;;;;;;4996185;28;20198;-87
2020/12/14 09:59:25;;;;;;;5.28;3.42;;;7.80;99.90;;;;;;4987963;28;20218;-87
2020/12/14 10:01:51;;;;;;;6.10;3.42;;;7.80;99.90;;;;;;4996363;28;20203;-88
2020/12/14 10:04:47;;;;;;;6.65;3.85;;;7.70;99.90;;;;;;4992168;28;20269;-89
2020/12/14 10:07:16;;;;;;;7.93;3.55;;;7.80;99.90;;;;;;4998976;28;20186;-88
2020/12/14 10:09:45;;;;;;;7.82;3.67;;;7.80;99.90;;;;;;4996821;28;20197;-90
2020/12/14 10:12:14;;;;;;;5.68;3.30;;;7.80;99.90;;;;;;5005271;28;20198;-92
2020/12/14 10:15:09;;;;;;;7.57;3.35;;;7.90;99.90;;;;;;4989771;28;20283;-91
2020/12/14 10:17:39;;;;;;;7.93;4.30;;;7.90;99.90;;;;;;4987044;28;20317;-92
2020/12/14 10:20:06;;;;;;;4.00;3.53;;;7.90;99.90;;;;;;4963945;28;20229;-90
2020/12/14 10:22:34;;;;;;;6.75;4.05;;;7.90;99.90;;;;;;4964927;28;20186;-89
2020/12/14 10:25:00;;;;;;;5.63;3.70;;;8.00;99.90;;;;;;4955946;28;20230;-90
2020/12/14 10:27:27;;;;;;;8.55;4.05;;;8.00;99.90;;;;;;4967436;28;20665;-87
2020/12/14 10:29:54;;;;;;;5.88;3.97;;;8.00;99.90;;;;;;4955577;28;20202;-91
2020/12/14 10:32:20;;;;;;;6.35;3.45;;;8.00;99.90;;;;;;4990729;28;20189;-92
2020/12/14 10:34:47;;;;;;;5.43;3.88;;;8.00;99.90;;;;;;4995248;28;20275;-88
2020/12/14 10:37:13;;;;;;;6.70;3.63;;;8.00;99.90;;;;;;4994085;28;20211;-86
2020/12/14 10:39:43;;;;;;;9.48;4.72;;;8.00;99.90;;;;;;4958149;28;20448;-85
2020/12/14 10:42:15;;;;;;;8.43;4.13;;;8.00;99.90;;;;;;4986087;28;20643;-88
2020/12/14 10:44:41;;;;;;;9.82;4.00;;;8.00;99.90;;;;;;4979689;28;20218;-85
2020/12/14 10:47:10;;;;;;;6.85;4.25;;;8.00;99.90;;;;;;4984115;28;20226;-85
2020/12/14 10:49:40;;;;;;;9.27;3.78;;;8.00;99.90;;;;;;4984088;28;20278;-86
2020/12/14 10:52:07;;;;;;;6.43;3.42;;;8.00;99.90;;;;;;4980669;28;20620;-87
2020/12/14 10:54:35;;;;;;;4.95;3.95;;;8.00;99.90;;;;;;4994342;28;20237;-84
2020/12/14 10:57:01;;;;;;;5.32;3.72;;;8.00;99.90;;;;;;4987526;28;20281;-86
2020/12/14 10:59:27;;;;;;;6.47;4.15;;;8.00;99.90;;;;;;4994538;28;20191;-91
2020/12/14 11:01:53;;;;;;;8.40;4.03;;;8.10;99.90;;;;;;4994824;28;20309;-88
2020/12/14 11:04:21;;;;;;;5.90;3.60;;;8.10;99.90;;;;;;4977943;28;20477;-89
2020/12/14 11:06:47;;;;;;;4.65;3.70;;;8.10;99.90;;;;;;4985644;28;20178;-90
2020/12/14 11:09:16;;;;;;;13.15;4.35;;;8.00;99.90;;;;;;4996721;28;20630;-90
2020/12/14 11:11:42;;;;;;;5.65;3.90;;;8.10;99.90;;;;;;5002178;28;20202;-89
2020/12/14 11:14:16;;;;;;;13.32;3.95;;;8.10;99.90;;;;;;4994705;28;20191;-90
2020/12/14 11:16:55;;;;;;;9.03;4.60;;;8.20;99.90;;;;;;4994129;28;20244;-89
2020/12/14 11:19:41;;;;;;;6.22;3.60;;;8.20;99.90;;;;;;4973489;28;20449;-88
2020/12/14 11:22:27;;;;;;;6.18;4.15;;;8.40;99.90;;;;;;4994087;28;20198;-90
2020/12/14 11:25:00;;;;;;;6.80;4.07;;;8.50;99.90;;;;;;5001877;28;20229;-88
2020/12/14 11:27:27;;;;;;;7.43;3.87;;;8.50;99.90;;;;;;4981651;28;20907;-88
2020/12/14 11:29:53;;;;;;;7.60;3.80;;;8.70;99.90;;;;;;4948316;28;20448;-90
2020/12/14 11:32:19;;;;;;;5.30;4.00;;;8.70;99.90;;;;;;4994113;28;20441;-90
2020/12/14 11:34:49;;;;;;;6.70;4.43;;;8.70;99.90;;;;;;5002954;28;20428;-88
2020/12/14 11:37:17;;;;;;;5.97;3.80;;;8.70;99.90;;;;;;5002900;28;20440;-90
2020/12/14 11:39:45;;;;;;;7.23;3.77;;;8.80;99.90;;;;;;4977547;28;20438;-91
2020/12/14 11:42:15;;;;;;;5.13;3.95;;;8.90;99.90;;;;;;4970618;28;20476;-90
2020/12/14 11:44:43;;;;;;;4.00;3.60;;;8.90;99.90;;;;;;4999150;28;20252;-90
2020/12/14 11:47:09;;;;;;;9.70;3.83;;;9.00;99.90;;;;;;4980847;28;20438;-88
2020/12/14 11:49:35;;;;;;;5.83;3.97;;;9.00;99.90;;;;;;4995950;28;20425;-88
2020/12/14 11:52:01;;;;;;;7.17;3.70;;;9.00;99.90;;;;;;4996729;28;20448;-89
2020/12/14 11:54:29;;;;;;;6.33;4.00;;;9.00;99.90;;;;;;4978477;28;20785;-90
2020/12/14 11:56:55;;;;;;;5.13;3.60;;;9.10;99.90;;;;;;5011292;28;20433;-87
2020/12/14 11:59:28;;;;;;;5.25;3.53;;;9.10;99.90;;;;;;4989136;28;20797;-89
2020/12/14 12:01:55;;;;;;;4.40;3.93;;;9.10;99.90;;;;;;4979464;28;20186;-90
2020/12/14 12:04:21;;;;;;;6.77;4.00;;;9.10;99.90;;;;;;4983598;28;20444;-89
2020/12/14 12:06:47;;;;;;;5.60;4.40;;;9.10;99.90;;;;;;4999544;28;20526;-83
2020/12/14 12:09:16;;;;;;;4.10;3.23;;;9.20;99.90;;;;;;4996818;28;20440;-84
2020/12/14 12:11:44;;;;;;;3.93;3.53;;;9.10;99.90;;;;;;4987226;28;20750;-84
2020/12/14 12:14:12;;;;;;;4.37;3.40;;;9.10;99.90;;;;;;4996225;28;20803;-84
2020/12/14 12:16:46;;;;;;;5.50;3.47;;;9.20;99.90;;;;;;4979328;28;20457;-84
2020/12/14 12:19:17;;;;;;;7.60;3.33;;;9.20;99.90;;;;;;4990768;28;20971;-84
2020/12/14 12:21:49;;;;;;;5.50;3.30;;;9.20;99.90;;;;;;5002430;28;20439;-90
2020/12/14 12:24:24;;;;;;;4.10;2.97;;;9.20;99.90;;;;;;4987020;28;20480;-89
2020/12/14 12:26:53;;;;;;;4.18;2.80;;;9.20;99.90;;;;;;4962026;28;20905;-90
2020/12/14 12:29:19;;;;;;;5.73;3.00;;;9.20;99.90;;;;;;4950488;28;20190;-90
2020/12/14 12:31:51;;;;;;;4.00;3.13;;;9.20;99.90;;;;;;4945559;28;20453;-93
2020/12/14 12:34:21;;;;;;;4.33;3.23;;;9.20;99.90;;;;;;4985350;28;20417;-90
2020/12/14 12:37:02;;;;;;;3.53;2.83;;;9.30;99.90;;;;;;4977936;28;20997;-90
2020/12/14 12:39:55;;;;;;;4.97;3.03;;;9.30;99.90;;;;;;4946374;28;20437;-92
2020/12/14 12:46:44;;;;;;;4.73;2.97;;;9.30;99.90;;;;;;4991947;28;20194;-90
2020/12/14 12:49:11;;;;;;;3.90;3.13;;;9.50;99.90;;;;;;4957852;28;20449;-92
2020/12/14 12:52:04;;;;;;;5.13;3.40;;;9.40;99.90;;;;;;4954350;28;20472;-90
2020/12/14 12:54:30;;;;;;;4.97;3.30;;;9.50;99.90;;;;;;4990887;28;20524;-91
2020/12/14 13:00:27;;;;;;;4.30;3.83;;;9.50;99.90;;;;;;4994547;28;20516;-91
2020/12/14 13:03:01;;;;;;;7.87;3.87;;;9.40;99.90;;;;;;5003714;28;20437;-93
2020/12/14 13:05:30;;;;;;;6.47;3.30;;;9.40;99.90;;;;;;4947831;28;20492;-88
2020/12/14 13:07:56;;;;;;;3.50;3.03;;;9.40;99.90;;;;;;4961134;28;20433;-94
2020/12/14 13:10:22;;;;;;;6.93;3.40;;;9.40;99.90;;;;;;4991217;28;20448;-91
2020/12/14 13:12:48;;;;;;;3.80;3.23;;;9.50;99.90;;;;;;4956111;28;20442;-91
2020/12/14 13:15:44;;;;;;;6.73;3.70;;;9.50;99.90;;;;;;4950767;28;20445;-93
2020/12/14 13:18:10;;;;;;;8.83;3.93;;;9.50;99.90;;;;;;4992474;28;20431;-91
2020/12/14 13:20:39;;;;;;;3.90;3.30;;;9.40;99.90;;;;;;4986713;28;20449;-94